»·PEaware :: SKW3186 KPHX-KSGU

SKW3186 :: KPHX-KSGU

FLIGHT INFORMATION

Flight Status: Arrived
Operator:
SkyWest Airlines
More flights by this operator :: More flights under this callsign
Pilot: Anonymous 11975 (11975)
Aircraft: CANADAIR CL-600 CRJ-700
(CRJ7)
More flights by this aircraft type
Origin: KPHX Phoenix Sky Harbor Intl
United States
Destination: KSGU St George Mun
United States
More flights between these airports :: More routes between these airports
Route: QUAKY1 GCN ETYIR PIETZ
File this flight plan on PilotEdge
Remarks:
Altitude:
(Current/Filed)
28,000ft
Speed:
(Current/Filed)
416kts
Departed: 06-Sep-22 11:54 AM
Arrived: 06-Sep-22 12:40 PM
Distance/Time
Traveled:
228nm/0:46
Distance/Time
To Go:
Arrived

Flight Plot

Page will automatically refresh every two minutes.

Flight plan parsing failed; only flown route is shown


Map Options




Map Legend


Flown Route
Filed Route
Departure Airport
Arrival Airport
Navaid (VOR, NDB)
Fix

Horizontal Profiles

Position Reports

Time Latitude Longitude Heading Altitude Ground
Speed
06-Sep-22 11:10 33.436539 -111.992928 180 1140ft 0kts
06-Sep-22 11:11 33.436539 -111.992928 180 1140ft 0kts
06-Sep-22 11:12 33.436539 -111.992928 180 1140ft 0kts
06-Sep-22 11:13 33.436539 -111.992928 180 1140ft 0kts
06-Sep-22 11:14 33.436539 -111.992928 180 1140ft 0kts
06-Sep-22 11:15 33.436539 -111.992928 180 1140ft 0kts
06-Sep-22 11:17 33.436539 -111.992928 180 1140ft 0kts
06-Sep-22 11:18 33.436539 -111.992928 180 1140ft 0kts
06-Sep-22 11:19 33.436539 -111.992928 180 1140ft 0kts
06-Sep-22 11:20 33.436539 -111.992928 180 1140ft 0kts
06-Sep-22 11:21 33.436539 -111.992928 180 1140ft 0kts
06-Sep-22 11:22 33.436539 -111.992928 180 1140ft 0kts
06-Sep-22 11:23 33.436539 -111.992928 180 1140ft 0kts
06-Sep-22 11:24 33.436539 -111.992928 180 1140ft 0kts
06-Sep-22 11:25 33.436539 -111.992928 180 1140ft 0kts
06-Sep-22 11:26 33.436539 -111.992928 180 1140ft 0kts
06-Sep-22 11:27 33.436539 -111.992928 180 1140ft 0kts
06-Sep-22 11:28 33.436539 -111.992928 180 1140ft 0kts
06-Sep-22 11:29 33.436539 -111.992928 180 1140ft 0kts
06-Sep-22 11:30 33.436539 -111.992928 180 1140ft 0kts
06-Sep-22 11:31 33.436539 -111.992928 180 1140ft 0kts
06-Sep-22 11:32 33.436539 -111.992928 180 1140ft 0kts
06-Sep-22 11:32 33.436539 -111.992928 180 1140ft 0kts
06-Sep-22 11:34 33.436539 -111.992928 180 1140ft 0kts
06-Sep-22 11:35 33.436539 -111.992928 180 1140ft 0kts
06-Sep-22 11:36 33.436539 -111.992928 180 1140ft 0kts
06-Sep-22 11:36 33.436539 -111.992928 180 1140ft 0kts
06-Sep-22 11:37 33.436539 -111.992928 180 1140ft 0kts
06-Sep-22 11:39 33.436539 -111.992928 180 1140ft 0kts
06-Sep-22 11:40 33.436539 -111.992928 180 1140ft 0kts
06-Sep-22 11:40 33.436539 -111.992928 180 1140ft 0kts
06-Sep-22 11:41 33.437052 -111.992923 180 1140ft 0kts
06-Sep-22 11:42 33.437052 -111.992923 180 1140ft 0kts
06-Sep-22 11:44 33.437052 -111.992923 180 1140ft 0kts
06-Sep-22 11:44 33.437015 -111.992914 149 1140ft 0kts
06-Sep-22 11:45 33.435007 -111.992292 179 1144ft 11kts
06-Sep-22 11:46 33.432133 -111.993742 268 1137ft 19kts
06-Sep-22 11:47 33.432142 -111.999239 270 1136ft 12kts
06-Sep-22 11:48 33.432133 -112.002157 269 1138ft 7kts
06-Sep-22 11:49 33.432142 -112.007131 268 1136ft 21kts
06-Sep-22 11:50 33.432144 -112.015417 268 1118ft 26kts
06-Sep-22 11:51 33.432155 -112.024048 270 1114ft 25kts
06-Sep-22 11:52 33.432051 -112.026810 222 1119ft 0kts
06-Sep-22 11:53 33.431061 -112.023864 90 1120ft 70kts
06-Sep-22 11:54 33.432475 -111.969377 88 3426ft 205kts
06-Sep-22 11:55 33.435603 -111.889451 87 6430ft 273kts
06-Sep-22 11:56 33.491900 -111.842518 3 10165ft 292kts
06-Sep-22 11:57 33.576519 -111.839457 5 12907ft 333kts
06-Sep-22 11:58 33.675430 -111.839275 355 15906ft 373kts
06-Sep-22 11:59 33.779775 -111.865486 352 19091ft 395kts
06-Sep-22 12:00 33.889797 -111.890218 353 22059ft 410kts
06-Sep-22 12:01 34.004780 -111.915578 351 24571ft 428kts
06-Sep-22 12:02 34.123958 -111.941156 357 26715ft 440kts
06-Sep-22 12:03 34.248750 -111.951952 358 27968ft 464kts
06-Sep-22 12:04 34.377704 -111.967527 357 28038ft 463kts
06-Sep-22 12:05 34.506126 -111.981050 357 28043ft 463kts
06-Sep-22 12:06 34.634484 -111.995526 357 28129ft 464kts
06-Sep-22 12:07 34.763175 -112.009888 357 28193ft 465kts
06-Sep-22 12:08 34.891938 -112.024666 357 28181ft 464kts
06-Sep-22 12:09 35.019951 -112.039195 357 28138ft 464kts
06-Sep-22 12:10 35.148852 -112.053735 357 28142ft 463kts
06-Sep-22 12:11 35.277283 -112.068072 357 28380ft 464kts
06-Sep-22 12:12 35.405951 -112.082483 357 28351ft 464kts
06-Sep-22 12:13 35.534687 -112.094790 357 28240ft 465kts
06-Sep-22 12:14 35.663538 -112.110304 356 28125ft 465kts
06-Sep-22 12:15 35.792474 -112.126012 356 28132ft 465kts
06-Sep-22 12:16 35.921075 -112.140849 356 28389ft 466kts
06-Sep-22 12:17 36.049147 -112.170698 347 28381ft 468kts
06-Sep-22 12:18 36.175802 -112.208465 349 28246ft 467kts
06-Sep-22 12:19 36.302674 -112.244639 348 28069ft 467kts
06-Sep-22 12:20 36.429146 -112.281623 348 28072ft 467kts
06-Sep-22 12:21 36.555591 -112.318720 348 28072ft 467kts
06-Sep-22 12:22 36.683262 -112.356249 348 28078ft 475kts
06-Sep-22 12:23 36.812799 -112.394357 347 28067ft 481kts
06-Sep-22 12:24 36.942260 -112.432867 348 27450ft 469kts
06-Sep-22 12:25 37.069928 -112.470513 346 25497ft 479kts
06-Sep-22 12:26 37.146341 -112.593207 269 23448ft 471kts
06-Sep-22 12:27 37.130989 -112.749691 261 19622ft 443kts
06-Sep-22 12:28 37.112184 -112.897256 260 15908ft 419kts
06-Sep-22 12:29 37.094163 -113.038554 260 12226ft 398kts
06-Sep-22 12:30 37.078867 -113.162396 260 10993ft 322kts
06-Sep-22 12:31 37.068290 -113.267172 262 9365ft 293kts
06-Sep-22 12:32 37.050754 -113.362769 245 7837ft 259kts
06-Sep-22 12:33 37.002666 -113.410672 199 6546ft 202kts
06-Sep-22 12:34 36.952822 -113.432981 192 5655ft 185kts
06-Sep-22 12:35 36.921083 -113.477138 259 5474ft 183kts
06-Sep-22 12:36 36.939242 -113.528908 328 4813ft 162kts
06-Sep-22 12:37 36.979379 -113.538831 7 3912ft 148kts
06-Sep-22 12:38 37.016797 -113.520593 19 3061ft 145kts
06-Sep-22 12:39 37.040349 -113.507493 112 2875ft 21kts
06-Sep-22 12:40 37.035848 -113.508370 203 2866ft 21kts
06-Sep-22 12:41 37.030884 -113.510296 110 2853ft 9kts
06-Sep-22 12:42 37.030842 -113.510156 110 2854ft 0kts
06-Sep-22 12:43 37.030842 -113.510156 110 2854ft 0kts

Navigation Log

Ident Type
Flight plan parsing failed, navigation log unavailable